Berkley, Massachusetts
Current Conditions -  °F | °C
As of 5:52 PM on Thursday 20 Nov 2014 (Local Time) from KTAN Reporting Station
Clear Clear  
Wind Chill: 37°   Ceiling: Unl
Heat Index: 42°   Visibility: 10mi
Dew Point: 23°   Wind: 8mph
Humidity: 47%   Direction: 230°SW
Pressure: 29.82"   Gusts: NA
Location:  41.85°N, 71.08°W
Report Text: KTAN 202252Z AUTO 23007KT 180V260 10SM CLR 06/M05 A2982 RMK AO2 SLP098 T00561050
Loading
Personal Weather Stations






























Interactive Weather Map New forecast layout! Learn more

10-Day Weather Forecast

Advertisements
Track Severe Weather on mobile